^^
LKKV - Karlovy Vary, Czech Republic
Entfernung von Station: O 36km
Aktualisierung: 21.06.2018 10:30
wolkig
wolkig
 Wind von W
Wind: W 13 km/h
Temperatur: 25°C
Taupunkt: 15°C
Luftfeuchte: 54%
Luftdruck: 1014 hPa
Wolken: wolkig
Sicht: 10 km
Wolken Details: wolkig 1402 m
2018/06/21 08:30 LKKV 210830Z 26007KT 230V310 9999 SCT046 25/15 Q1014
EDQM - Hof, Germany
Entfernung von Station: W 40km
Aktualisierung: 21.06.2018 10:20
Klar
Klar
 Wind von SW
Wind: SW 17 km/h
Temperatur: 24°C
Taupunkt: 13°C
Luftfeuchte: 50%
Luftdruck: 1014 hPa
Zusammenfassung: Klar
Sicht: mehr als 10 km
2018/06/21 08:20 EDQM 210820Z 23009KT 190V280 CAVOK 24/13 Q1014
 
ETIC - Grafenwoehr, Germany
Entfernung von Station: SSW 72km
Aktualisierung: 21.06.2018 09:56
teils wolkig
teils wolkig
 Wind von SW
Wind: SW 11 km/h
Temperatur: 24°C
Taupunkt: 16°C
Luftfeuchte: 61%
Luftdruck: 1014.2 hPa
Wolken: teils wolkig
Sicht: 10 km
Wolken Details: teils wolkig 1981 m
2018/06/21 07:56 ETIC 210756Z AUTO 22006KT 9999 FEW065 24/16 A2995 RMK AO2 SLP125 T02390162 $
EDAC - Altenburg-Nobitz, Germany
Entfernung von Station: N 80km
Aktualisierung: 21.06.2018 10:20
Klar
Klar
 Wind von SW
Wind: SW 28 km/h
Temperatur: 28°C
Hitze Index: 28°C
Taupunkt: 14°C
Luftfeuchte: 42%
Luftdruck: 1011 hPa
Zusammenfassung: Klar
Sicht: mehr als 10 km
2018/06/21 08:20 EDAC 210820Z 23015KT CAVOK 28/14 Q1011
 
LKLN - Plzen Line, Czech Republic
Entfernung von Station: SO 88km
Aktualisierung: 21.06.2018 10:00
Klar
Klar
 Wind von WSW
Wind: WSW 9 km/h
Temperatur: 25°C
Taupunkt: 15°C
Luftfeuchte: 54%
Luftdruck: 1014 hPa
Zusammenfassung: Klar
Sicht: mehr als 10 km
2018/06/21 08:00 LKLN 210800Z AUTO 25005KT 200V330 CAVOK 25/15 Q1014
ETIH - Hohenfels (usa-A, Germany
Entfernung von Station: SSW 124km
Aktualisierung: 21.06.2018 09:56
teils wolkig
teils wolkig
 Wind von W
Wind: W 15 km/h
Temperatur: 26°C
Taupunkt: 17°C
Luftfeuchte: 58%
Luftdruck: 1015.2 hPa
Wolken: teils wolkig
Sicht: 10 km
Wolken Details: teils wolkig 1676 m
2018/06/21 07:56 ETIH 210756Z AUTO 26008KT 9999 FEW055 26/17 A2998 RMK AO2 SLP133 T02570168 $
 
EDDE - Erfurt/Bindersleben, Germany
Entfernung von Station: NW 129km
Aktualisierung: 21.06.2018 10:20
stark bewölkt
stark bewölkt
 Wind von WNW
Wind: WNW 22 km/h
Temperatur: 23°C
Taupunkt: 15°C
Luftfeuchte: 61%
Luftdruck: 1012 hPa
Wolken: stark bewölkt
Sicht: 10 km
Wolken Details: teils wolkig 1311 m
stark bewölkt 9144 m
2018/06/21 08:20 EDDE 210820Z 29012KT 9999 FEW043 BKN300 23/15 Q1012 NOSIG
EDDP - Leipzig/Schkeudidtz, Germany
Entfernung von Station: N 129km
Aktualisierung: 21.06.2018 10:20
Klar
Klar
 Wind von WSW
Wind: WSW 28 km/h
Temperatur: 27°C
Hitze Index: 27°C
Taupunkt: 15°C
Luftfeuchte: 48%
Luftdruck: 1010 hPa
Zusammenfassung: Klar
Sicht: mehr als 10 km
2018/06/21 08:20 EDDP 210820Z 25015KT CAVOK 27/15 Q1010 BECMG 25015G25KT
 
EDDN - Nuernberg, Germany
Entfernung von Station: SW 130km
Aktualisierung: 21.06.2018 10:20
Klar
Klar
 Wind von W
Wind: W 15 km/h
Temperatur: 27°C
Hitze Index: 27°C
Taupunkt: 15°C
Luftfeuchte: 48%
Luftdruck: 1014 hPa
Zusammenfassung: Klar
Sicht: mehr als 10 km
2018/06/21 08:20 EDDN 210820Z 26008KT 230V290 CAVOK 27/15 Q1014 BECMG 28015G25KT
LKPR - Prague/Ruzyne, Czech Republic
Entfernung von Station: O 133km
Aktualisierung: 21.06.2018 10:30
teils wolkig
teils wolkig
 Wind von SW
Wind: SW 19 km/h
Temperatur: 26°C
Taupunkt: 16°C
Luftfeuchte: 54%
Luftdruck: 1013 hPa
Wolken: teils wolkig
Sicht: 10 km
Wolken Details: teils wolkig 1219 m
2018/06/21 08:30 LKPR 210830Z 23010KT 9999 FEW040 26/16 Q1013 NOSIG
 
EDDC - Dresden/Klotzsche, Germany
Entfernung von Station: NO 134km
Aktualisierung: 21.06.2018 10:20
Klar
Klar
 Wind von SW
Wind: SW 20 km/h, Windböen: 39 km/h
Temperatur: 27°C
Taupunkt: 11°C
Luftfeuchte: 37%
Luftdruck: 1011 hPa
Zusammenfassung: Klar
Sicht: mehr als 10 km
2018/06/21 08:20 EDDC 210820Z 23011G21KT 200V260 CAVOK 27/11 Q1011 NOSIG
Besucherstatistik
Besucher gesamt: 1.050.508
Besucher heute: 330
Besucher gestern: 768
gerade online: 20
Seitenaufrufe diese Seite: 3.457
counter Statistiken